Time;durP1;ratioP1;P1;durP2;ratioP2;P2;SDS_P1;SDS_P2;PMS_P1;PMS_P2;Temp;Humidity;BMP_temperature;BMP_pressure;BME280_temperature;BME280_humidity;BME280_pressure;Samples;Min_cycle;Max_cycle;Signal;HPM_P1;HPM_P2
2021/10/01 06:24:01;;;;;;;7.45;5.78;;;;;;;12.20;89.95;95752.53;5107751;27;20399;-92
2021/10/01 06:26:26;;;;;;;6.38;5.78;;;;;;;12.61;88.43;95762.00;5072244;28;20032;-90
2021/10/01 06:28:52;;;;;;;7.53;6.07;;;;;;;12.39;88.25;95747.06;5087887;28;20028;-91
2021/10/01 06:31:17;;;;;;;11.85;6.90;;;;;;;12.72;87.50;95758.25;5068095;28;20039;-94
2021/10/01 06:33:43;;;;;;;15.63;8.50;;;;;;;12.99;86.92;95754.47;5067470;28;20082;-93
2021/10/01 06:36:09;;;;;;;56.22;39.05;;;;;;;12.84;85.48;95733.56;5103817;28;20027;-95
2021/10/01 06:38:34;;;;;;;11.82;8.60;;;;;;;12.89;85.75;95765.06;5083893;28;20032;-95
2021/10/01 06:41:00;;;;;;;7.53;6.82;;;;;;;13.00;85.21;95761.31;5087553;28;20025;-90
2021/10/01 06:43:26;;;;;;;11.57;8.50;;;;;;;13.20;84.29;95771.22;5100963;28;20035;-90
2021/10/01 06:45:54;;;;;;;8.75;6.60;;;;;;;12.91;83.50;95773.50;5102086;28;20086;-90
2021/10/01 08:20:41;;;;;;;164.55;9.07;;;;;;;14.30;56.27;95725.09;5056535;28;20027;-92
2021/10/01 08:23:06;;;;;;;364.80;21.98;;;;;;;14.24;54.93;95722.22;5083463;28;20040;-93
2021/10/01 08:25:33;;;;;;;211.70;11.75;;;;;;;14.16;54.19;95730.09;5072481;28;20465;-93
2021/10/01 08:27:59;;;;;;;112.45;9.23;;;;;;;13.97;54.48;95727.94;5091446;28;20024;-91
2021/10/01 08:30:25;;;;;;;428.40;20.48;;;;;;;14.08;54.40;95737.97;5055474;28;20028;-93
2021/10/01 08:32:51;;;;;;;5.35;3.88;;;;;;;13.96;56.11;95734.13;5090008;28;20020;-92
2021/10/01 08:35:21;;;;;;;653.33;33.58;;;;;;;13.76;55.31;95732.94;5087507;28;20043;-89
2021/10/01 08:37:46;;;;;;;;;;;;;;;13.93;55.19;95742.31;5073976;28;20024;-91
2021/10/01 08:40:12;;;;;;;644.10;31.20;;;;;;;13.83;54.78;95739.09;5072575;28;19912;-94
2021/10/01 08:42:38;;;;;;;861.35;41.38;;;;;;;13.83;55.33;95733.06;5089856;28;20404;-94
2021/10/01 08:45:04;;;;;;;64.82;6.60;;;;;;;13.70;54.91;95723.22;5089556;28;20085;-91
2021/10/01 08:47:29;;;;;;;88.22;7.18;;;;;;;13.92;55.57;95737.25;5072367;28;20028;-94
2021/10/01 08:49:56;;;;;;;4.32;3.92;;;;;;;13.96;55.60;95728.13;5089968;28;20032;-92
2021/10/01 08:52:21;;;;;;;158.40;10.52;;;;;;;13.98;55.10;95724.34;5071743;28;20031;-94
2021/10/01 08:54:47;;;;;;;6.03;4.80;;;;;;;14.03;54.63;95727.25;5089093;28;20020;-93
2021/10/01 08:57:12;;;;;;;478.40;26.20;;;;;;;14.06;54.67;95719.06;5071407;28;20028;-87
2021/10/01 08:59:38;;;;;;;5.35;3.90;;;;;;;14.05;53.52;95722.69;5051093;28;20093;-93
2021/10/01 09:02:03;;;;;;;494.65;23.73;;;;;;;14.19;53.86;95728.94;5088649;28;20036;-90
2021/10/01 09:04:29;;;;;;;31.83;6.50;;;;;;;14.34;54.73;95723.81;5054794;28;20757;-90
2021/10/01 09:06:56;;;;;;;10.30;4.13;;;;;;;14.24;55.16;95680.53;5051934;28;20081;-95
2021/10/01 09:09:45;;;;;;;138.98;11.73;;;;;;;14.56;55.38;95730.81;5051427;28;20437;-90
2021/10/01 09:12:14;;;;;;;103.25;6.90;;;;;;;14.46;54.99;95704.16;5074667;28;20099;-89
2021/10/01 09:14:53;;;;;;;126.30;8.53;;;;;;;14.94;54.87;95732.41;5080379;28;20053;-88
2021/10/01 09:17:20;;;;;;;4.82;4.32;;;;;;;14.85;54.95;95736.09;5088765;28;20767;-84
2021/10/01 09:19:46;;;;;;;71.20;6.95;;;;;;;14.89;53.16;95739.97;5054590;28;20036;-88
2021/10/01 09:22:28;;;;;;;4.50;4.10;;;;;;;14.73;52.50;95733.09;5087062;28;20052;-87
2021/10/01 09:25:17;;;;;;;92.63;7.03;;;;;;;15.07;52.27;95739.63;5087684;28;20024;-87
2021/10/01 09:27:44;;;;;;;1999.90;123.82;;;;;;;14.35;51.87;95723.66;5053241;28;20059;-93
2021/10/01 09:30:10;;;;;;;106.03;7.95;;;;;;;14.99;52.46;95732.72;5071132;28;20032;-92
2021/10/01 09:32:35;;;;;;;198.57;13.60;;;;;;;15.07;52.17;95737.00;5071033;28;20132;-88
2021/10/01 09:35:12;;;;;;;1504.07;105.80;;;;;;;14.90;53.40;95723.31;5087800;28;20027;-90
2021/10/01 09:37:37;;;;;;;32.95;4.35;;;;;;;15.20;51.88;95738.00;5055549;28;20016;-89
2021/10/01 09:40:05;;;;;;;9.50;5.13;;;;;;;15.44;51.76;95710.03;5069004;28;20050;-86
2021/10/01 09:42:33;;;;;;;66.53;5.80;;;;;;;15.23;51.42;95722.00;5051677;28;20497;-88
2021/10/01 09:45:04;;;;;;;1043.18;46.92;;;;;;;16.00;51.73;95727.59;5061313;28;20030;-79
2021/10/01 09:47:34;;;;;;;164.68;10.23;;;;;;;15.64;53.00;95703.25;5086441;28;20075;-84
2021/10/01 09:50:05;;;;;;;155.25;8.82;;;;;;;15.34;53.03;95714.72;5056084;28;20055;-87
2021/10/01 09:52:45;;;;;;;11.95;4.80;;;;;;;15.34;53.62;95722.53;5066722;28;20129;-88
2021/10/01 09:55:11;;;;;;;239.93;12.93;;;;;;;15.40;53.27;95709.56;5067500;28;20039;-91
2021/10/01 09:57:38;;;;;;;80.65;7.22;;;;;;;15.26;53.00;95686.88;5081755;28;20043;-88
2021/10/01 10:00:05;;;;;;;709.75;32.30;;;;;;;15.27;52.79;95697.16;5070521;28;20039;-83
2021/10/01 10:02:38;;;;;;;1212.40;64.57;;;;;;;15.45;52.89;95716.84;5069414;28;20440;-87
2021/10/01 10:05:03;;;;;;;368.17;17.10;;;;;;;15.30;52.16;95699.41;5086932;28;20062;-91
2021/10/01 10:07:29;;;;;;;1250.47;62.15;;;;;;;15.39;52.13;95697.50;5054714;28;20068;-95
2021/10/01 10:10:04;;;;;;;786.10;36.33;;;;;;;15.42;52.09;95694.53;5052515;28;20020;-88
2021/10/01 10:12:32;;;;;;;303.20;16.45;;;;;;;15.80;51.98;95708.25;5071107;28;20083;-90
2021/10/01 10:14:57;;;;;;;373.50;20.48;;;;;;;15.51;52.17;95693.47;5086453;28;20024;-90
2021/10/01 10:17:25;;;;;;;821.47;39.72;;;;;;;15.77;51.50;95693.78;5070704;28;20032;-87
2021/10/01 10:19:52;;;;;;;219.80;11.55;;;;;;;15.94;51.77;95699.59;5069382;28;20047;-93
2021/10/01 10:22:19;;;;;;;142.63;9.73;;;;;;;16.13;51.52;95700.78;5043073;28;20133;-89
2021/10/01 10:24:45;;;;;;;823.22;37.55;;;;;;;15.74;51.27;95688.09;5078327;28;20528;-87
2021/10/01 10:27:11;;;;;;;91.63;6.53;;;;;;;16.13;51.43;95656.34;5068746;28;20043;-90
2021/10/01 10:29:38;;;;;;;244.00;15.98;;;;;;;16.07;51.22;95688.47;5058103;28;20016;-85
2021/10/01 10:32:06;;;;;;;349.50;17.40;;;;;;;16.07;50.58;95698.91;5046225;28;20032;-93
2021/10/01 15:15:41;;;;;;;159.75;12.43;;;;;;;14.35;57.96;95556.88;5067377;28;20059;-79
2021/10/01 15:18:07;;;;;;;154.52;8.95;;;;;;;14.25;58.51;95544.03;5053854;28;20032;-78
2021/10/01 15:20:33;;;;;;;1360.45;60.35;;;;;;;14.14;58.66;95552.31;5053859;28;20028;-77
2021/10/01 15:22:58;;;;;;;1270.55;60.03;;;;;;;14.11;58.87;95560.47;5068282;28;20035;-76
2021/10/01 15:25:24;;;;;;;360.90;18.50;;;;;;;13.88;59.35;95538.88;5050852;28;20024;-77
2021/10/01 15:27:49;;;;;;;128.93;9.60;;;;;;;14.03;59.60;95562.34;5069846;28;20029;-76
2021/10/01 15:30:16;;;;;;;195.10;11.43;;;;;;;13.84;59.97;95545.41;5055972;28;20066;-76
2021/10/01 15:32:44;;;;;;;1105.28;54.63;;;;;;;13.81;60.49;95561.38;5071656;28;20485;-77
2021/10/01 15:35:11;;;;;;;337.75;17.95;;;;;;;13.86;60.88;95564.28;5070952;28;20505;-76
2021/10/01 15:37:37;;;;;;;199.30;14.25;;;;;;;13.78;60.29;95560.91;5072701;28;20042;-76
2021/10/01 15:40:03;;;;;;;553.05;25.17;;;;;;;13.74;60.87;95569.06;5088296;28;20786;-77
2021/10/01 15:42:29;;;;;;;1082.30;53.97;;;;;;;13.70;60.85;95561.81;5090066;28;20024;-77
2021/10/01 15:44:54;;;;;;;229.75;11.82;;;;;;;13.67;60.87;95565.59;5054668;28;20500;-77
2021/10/01 15:47:20;;;;;;;409.83;21.88;;;;;;;13.63;60.94;95576.50;5070884;28;20016;-77
2021/10/01 15:49:45;;;;;;;840.55;40.08;;;;;;;13.58;61.07;95566.59;5088864;28;20021;-77
2021/10/01 15:52:11;;;;;;;335.17;18.55;;;;;;;13.46;61.43;95554.97;5053036;28;20575;-76
2021/10/01 15:54:37;;;;;;;612.42;32.95;;;;;;;13.46;61.62;95570.59;5087368;28;20378;-75
2021/10/01 15:57:02;;;;;;;985.25;50.47;;;;;;;13.42;61.83;95574.50;5068659;28;20028;-76
2021/10/01 15:59:28;;;;;;;745.13;33.30;;;;;;;13.42;62.73;95581.53;5065562;28;20021;-79
2021/10/01 16:01:53;;;;;;;267.85;15.05;;;;;;;13.37;62.11;95568.22;5067696;28;20055;-77
2021/10/01 16:04:18;;;;;;;221.40;12.00;;;;;;;13.29;62.33;95573.47;5052771;28;20028;-76
2021/10/01 16:06:45;;;;;;;50.92;5.13;;;;;;;13.11;62.60;95565.94;5089480;28;20032;-76
2021/10/01 16:09:11;;;;;;;939.92;47.08;;;;;;;13.07;63.22;95575.81;5085389;28;20020;-76
2021/10/01 16:11:36;;;;;;;665.97;31.98;;;;;;;13.01;63.34;95566.09;5088841;28;20511;-76
2021/10/01 16:14:02;;;;;;;1166.40;64.78;;;;;;;12.97;63.72;95575.22;5052708;28;20432;-77
2021/10/01 16:16:27;;;;;;;675.92;36.75;;;;;;;12.95;63.54;95582.38;5079767;28;20041;-76
2021/10/01 16:18:55;;;;;;;21.83;4.40;;;;;;;12.87;63.77;95556.44;5072941;28;20040;-76
2021/10/01 16:21:21;;;;;;;6.95;4.60;;;;;;;12.88;63.73;95575.44;5089149;28;20490;-76
2021/10/01 16:23:46;;;;;;;58.33;8.73;;;;;;;12.95;63.64;95586.78;5088030;28;20020;-76
2021/10/01 16:26:12;;;;;;;1077.63;51.60;;;;;;;12.87;63.58;95590.25;5069808;28;20024;-76
2021/10/01 16:28:37;;;;;;;1285.03;79.00;;;;;;;12.81;64.07;95585.69;5089841;28;20543;-76
2021/10/01 16:31:03;;;;;;;568.42;29.15;;;;;;;12.71;64.03;95573.91;5086165;28;20110;-75
2021/10/01 16:33:28;;;;;;;1369.95;74.22;;;;;;;12.81;64.11;95596.09;5071005;28;20024;-76
2021/10/01 16:35:55;;;;;;;330.52;19.55;;;;;;;12.77;64.51;95589.63;5048960;28;20643;-76
2021/10/01 16:38:21;;;;;;;43.83;8.05;;;;;;;12.74;65.02;95583.94;5065784;28;20099;-76
2021/10/01 16:40:46;;;;;;;54.70;6.28;;;;;;;12.62;64.63;95570.50;5065057;28;20029;-76
2021/10/01 16:43:13;;;;;;;8.80;5.15;;;;;;;12.70;65.50;95596.47;5049061;28;20524;-76
2021/10/01 16:45:39;;;;;;;5.63;5.10;;;;;;;12.58;65.49;95577.84;5057969;28;20037;-76
2021/10/01 16:48:05;;;;;;;9.73;6.20;;;;;;;12.66;65.37;95587.38;5046710;28;20089;-76
2021/10/01 16:50:30;;;;;;;62.90;8.32;;;;;;;12.63;64.98;95603.31;5049787;28;20020;-76
2021/10/01 16:53:00;;;;;;;7.80;4.22;;;;;;;12.53;65.25;95581.88;5032636;28;20029;-76
2021/10/01 16:55:26;;;;;;;974.38;47.17;;;;;;;12.53;65.29;95594.88;5064849;28;20039;-76
2021/10/01 16:57:54;;;;;;;4.53;4.13;;;;;;;12.56;64.81;95586.75;5069498;28;20032;-76
2021/10/01 17:00:20;;;;;;;145.45;10.15;;;;;;;12.51;65.63;95589.06;5086792;28;20028;-76
2021/10/01 17:02:46;;;;;;;1788.70;119.00;;;;;;;12.45;65.22;95594.91;5087669;28;20382;-76
2021/10/01 17:05:12;;;;;;;3.97;3.65;;;;;;;12.56;65.25;95599.75;5069204;28;20032;-76
2021/10/01 17:07:37;;;;;;;400.60;21.60;;;;;;;12.66;64.39;95602.97;5070633;28;20161;-77
2021/10/01 17:10:03;;;;;;;7.03;4.53;;;;;;;12.61;63.96;95594.88;5085915;28;20024;-76
2021/10/01 17:12:29;;;;;;;6.65;3.83;;;;;;;12.58;63.90;95585.63;5053423;28;20038;-76
2021/10/01 17:14:54;;;;;;;48.75;7.45;;;;;;;12.50;64.92;95608.22;5069641;28;20020;-76
2021/10/01 17:17:20;;;;;;;1985.50;101.38;;;;;;;12.51;64.20;95594.25;5088405;28;20119;-76
2021/10/01 17:19:45;;;;;;;41.55;7.40;;;;;;;12.53;64.48;95600.91;5087191;28;20035;-76
2021/10/01 17:22:11;;;;;;;8.80;4.53;;;;;;;12.42;64.18;95587.47;5068999;28;20028;-76
2021/10/01 17:24:36;;;;;;;6.07;4.22;;;;;;;12.50;64.32;95614.22;5087161;28;20024;-75
2021/10/01 17:27:02;;;;;;;35.95;5.00;;;;;;;12.58;64.44;95614.22;5085489;28;20031;-76
2021/10/01 17:29:27;;;;;;;297.15;15.38;;;;;;;12.55;64.16;95621.53;5070281;28;20089;-77
2021/10/01 17:31:53;;;;;;;8.88;4.70;;;;;;;12.55;66.09;95616.34;5085637;28;20035;-76
2021/10/01 17:34:18;;;;;;;4.13;3.83;;;;;;;12.51;64.65;95615.03;5066914;28;20021;-76
2021/10/01 17:36:44;;;;;;;9.32;4.53;;;;;;;12.30;65.73;95593.97;5068672;28;20123;-76
2021/10/01 17:39:09;;;;;;;5.35;4.75;;;;;;;12.44;65.38;95616.66;5069657;28;20027;-77
2021/10/01 17:41:35;;;;;;;4.70;4.13;;;;;;;12.47;65.44;95617.16;5070262;28;20032;-76
2021/10/01 17:44:04;;;;;;;52.22;5.88;;;;;;;12.46;64.63;95622.50;5086727;28;20054;-76
2021/10/01 17:46:29;;;;;;;75.88;6.80;;;;;;;12.42;64.98;95621.22;5087027;28;20024;-75
2021/10/01 17:48:55;;;;;;;4.22;3.83;;;;;;;12.48;65.61;95630.97;5085480;28;20519;-78
2021/10/01 17:51:20;;;;;;;4.95;4.50;;;;;;;12.35;65.79;95620.25;5087651;28;20039;-78
2021/10/01 17:53:46;;;;;;;6.10;4.18;;;;;;;12.30;65.80;95620.75;5086491;28;20520;-78
2021/10/01 17:56:11;;;;;;;7.05;4.32;;;;;;;12.28;66.57;95614.09;5087969;28;20032;-78
2021/10/01 17:58:37;;;;;;;678.33;34.20;;;;;;;12.28;64.88;95625.31;5069388;28;20056;-77
2021/10/01 18:01:03;;;;;;;7.47;4.60;;;;;;;12.21;65.40;95621.72;5085863;28;20028;-75
2021/10/01 18:03:28;;;;;;;725.40;49.08;;;;;;;11.76;64.59;95552.16;5086704;28;20024;-79
2021/10/01 18:05:56;;;;;;;33.63;4.45;;;;;;;12.18;65.09;95626.44;5085182;28;20032;-76
2021/10/01 18:08:22;;;;;;;5.50;4.10;;;;;;;12.06;65.52;95624.19;5086769;28;20026;-77
2021/10/01 18:10:47;;;;;;;4.07;3.67;;;;;;;12.17;65.47;95632.63;5085308;28;20016;-77
2021/10/01 18:13:13;;;;;;;1522.65;81.43;;;;;;;12.02;65.82;95635.88;5086073;28;20039;-76
2021/10/01 18:15:38;;;;;;;5.32;4.07;;;;;;;12.02;66.36;95641.06;5087085;28;20039;-78
2021/10/01 18:18:04;;;;;;;29.48;4.45;;;;;;;11.91;66.61;95625.78;5087097;28;20051;-78
2021/10/01 18:20:30;;;;;;;6.43;4.55;;;;;;;11.98;66.45;95639.75;5086623;28;20028;-79
2021/10/01 18:22:56;;;;;;;6.28;4.68;;;;;;;11.91;66.96;95641.38;5068567;28;20039;-76
2021/10/01 18:25:21;;;;;;;6.40;4.38;;;;;;;11.94;67.03;95642.84;5085892;28;20028;-78
2021/10/01 18:27:47;;;;;;;7.22;4.28;;;;;;;11.82;67.25;95629.38;5085323;28;20405;-77
2021/10/01 18:30:12;;;;;;;4.68;4.10;;;;;;;11.88;67.18;95628.72;5069045;28;20047;-78
2021/10/01 18:32:38;;;;;;;7.20;4.25;;;;;;;11.87;68.88;95636.69;5051169;28;20135;-77
2021/10/01 18:35:04;;;;;;;7.57;5.05;;;;;;;11.80;69.48;95638.28;5069785;28;20077;-78
2021/10/01 18:37:29;;;;;;;6.72;5.03;;;;;;;11.80;69.61;95640.88;5068789;28;20028;-78
2021/10/01 18:39:55;;;;;;;6.25;5.10;;;;;;;11.88;71.00;95651.28;5084990;28;20028;-76
2021/10/01 18:42:20;;;;;;;8.27;6.05;;;;;;;11.70;72.38;95661.78;5081507;28;20468;-78
2021/10/01 18:44:46;;;;;;;49.20;6.65;;;;;;;11.24;74.05;95646.75;5045572;28;20032;-75
2021/10/01 18:47:11;;;;;;;53.25;7.18;;;;;;;11.22;73.14;95661.63;5064156;28;20025;-75
2021/10/01 18:49:37;;;;;;;10.90;4.57;;;;;;;11.16;74.12;95652.72;5047816;28;20119;-76
2021/10/01 18:52:05;;;;;;;68.63;8.70;;;;;;;11.14;74.71;95659.84;5083983;28;20413;-75
2021/10/01 18:54:32;;;;;;;7.10;4.13;;;;;;;11.28;74.28;95664.41;5085187;28;20047;-75
2021/10/01 18:56:58;;;;;;;70.13;6.70;;;;;;;11.11;72.01;95635.03;5085862;28;20028;-75
2021/10/01 18:59:23;;;;;;;6.70;4.53;;;;;;;11.33;73.15;95663.97;5086235;28;20035;-76
2021/10/01 19:01:48;;;;;;;7.57;5.22;;;;;;;11.31;75.81;95668.47;5085800;28;20027;-76
2021/10/01 19:04:14;;;;;;;5.95;5.20;;;;;;;11.18;76.58;95668.09;5069088;28;20032;-76
2021/10/01 19:06:40;;;;;;;6.80;6.13;;;;;;;11.30;76.18;95662.47;5085658;28;20474;-76
2021/10/01 19:09:06;;;;;;;8.98;7.88;;;;;;;10.96;75.54;95630.59;5063831;28;20097;-76
2021/10/01 19:11:32;;;;;;;10.48;9.52;;;;;;;11.16;74.59;95663.09;5047782;28;20067;-78
2021/10/01 19:13:58;;;;;;;7.57;6.80;;;;;;;11.17;76.39;95674.28;5059625;28;20063;-76
2021/10/01 19:16:23;;;;;;;8.63;7.88;;;;;;;10.85;77.47;95642.03;5048010;28;20080;-75
2021/10/01 19:18:49;;;;;;;7.22;6.63;;;;;;;10.95;75.92;95665.25;5068426;28;20020;-77
2021/10/01 19:21:16;;;;;;;7.18;6.60;;;;;;;11.01;77.42;95668.03;5079085;28;20020;-78
2021/10/01 19:31:19;;;;;;;6.70;5.97;;;;;;;10.96;77.81;95677.25;5073179;28;20025;-79
2021/10/01 19:33:45;;;;;;;6.32;5.10;;;;;;;10.99;77.75;95676.94;5069319;28;20097;-80
2021/10/01 19:36:13;;;;;;;7.97;6.47;;;;;;;10.89;78.15;95661.50;5086141;28;20020;-77
2021/10/01 19:38:38;;;;;;;7.53;6.03;;;;;;;10.97;78.80;95677.09;5068333;28;20036;-79
2021/10/01 19:41:04;;;;;;;6.90;6.38;;;;;;;10.84;79.31;95679.31;5044040;28;20024;-79
2021/10/01 19:43:29;;;;;;;6.28;5.78;;;;;;;10.75;79.84;95682.00;5057897;28;20115;-78
2021/10/01 19:45:55;;;;;;;7.93;6.13;;;;;;;10.72;81.06;95664.19;5069201;28;20082;-76
2021/10/01 19:48:20;;;;;;;7.18;6.68;;;;;;;10.68;81.47;95670.63;5066726;28;20040;-76
2021/10/01 19:50:46;;;;;;;6.28;5.68;;;;;;;10.80;81.38;95677.97;5065670;28;20040;-77
2021/10/01 19:53:12;;;;;;;8.30;6.72;;;;;;;10.47;82.17;95683.91;5050799;28;20033;-76
2021/10/01 19:55:38;;;;;;;6.38;5.75;;;;;;;10.59;81.82;95680.13;5068378;28;20469;-76
2021/10/01 19:58:04;;;;;;;6.80;6.10;;;;;;;10.47;81.36;95673.56;5065363;28;20895;-76
2021/10/01 20:00:42;;;;;;;7.47;6.63;;;;;;;10.27;81.83;95670.38;5034622;28;20094;-76
2021/10/01 20:03:07;;;;;;;10.05;6.60;;;;;;;10.59;80.15;95659.41;5061624;28;20477;-77
2021/10/01 20:05:33;;;;;;;6.50;6.00;;;;;;;10.72;81.14;95669.34;5088881;28;20035;-76
2021/10/01 20:07:58;;;;;;;41.95;8.32;;;;;;;10.26;81.24;95667.94;5069932;28;20497;-76
2021/10/01 20:10:25;;;;;;;8.93;7.10;;;;;;;10.32;79.77;95664.72;5088528;28;20020;-76
2021/10/01 20:12:51;;;;;;;6.68;5.97;;;;;;;10.53;76.42;95655.63;5071434;28;20024;-76
2021/10/01 20:15:18;;;;;;;31.65;7.45;;;;;;;10.54;75.64;95648.69;5088507;28;20028;-75
2021/10/01 20:17:50;;;;;;;13.90;5.75;;;;;;;10.67;74.76;95666.41;5088556;28;20433;-76
2021/10/01 20:26:06;;;;;;;99.07;8.15;;;;;;;10.66;74.88;95669.97;5089320;28;20028;-76
2021/10/01 20:47:12;;;;;;;4.15;3.55;;;;;;;10.20;77.87;95651.22;5088019;28;20035;-80
2021/10/01 20:49:39;;;;;;;9.05;3.90;;;;;;;10.13;78.65;95646.75;5054798;28;20016;-80
2021/10/01 20:52:05;;;;;;;4.88;3.28;;;;;;;9.88;78.42;95609.53;5071725;28;20028;-80
2021/10/01 20:54:33;;;;;;;8.80;3.47;;;;;;;10.18;76.35;95660.13;5070296;28;20024;-80
2021/10/01 20:57:08;;;;;;;4.97;3.40;;;;;;;10.16;77.91;95654.25;5071036;28;20028;-80
2021/10/01 20:59:54;;;;;;;4.13;3.40;;;;;;;10.07;77.64;95664.53;5087020;28;20481;-78
2021/10/01 21:48:46;;;;;;;8.93;4.63;;;;;;;9.47;80.61;95639.41;5077127;28;20028;-74
2021/10/01 21:51:12;;;;;;;6.25;5.18;;;;;;;9.61;81.29;95643.25;5085257;28;20031;-74
2021/10/01 21:53:37;;;;;;;6.63;5.53;;;;;;;9.64;81.19;95648.13;5087315;28;20028;-75
2021/10/01 21:56:03;;;;;;;8.30;5.32;;;;;;;9.55;80.85;95644.66;5086736;28;20036;-74
2021/10/01 21:58:32;;;;;;;5.03;4.43;;;;;;;9.58;82.03;95643.53;5088449;28;20047;-77
